Time;durP1;ratioP1;P1;durP2;ratioP2;P2;SDS_P1;SDS_P2;PMS_P1;PMS_P2;Temp;Humidity;BMP_temperature;BMP_pressure;BME280_temperature;BME280_humidity;BME280_pressure;Samples;Min_cycle;Max_cycle;Signal;HPM_P1;HPM_P2
2021/07/17 00:03:44;;;;;;;18.08;6.72;;;18.30;99.90;;;;;;6698590;88;20229;-80
2021/07/17 00:13:44;;;;;;;24.35;7.43;;;18.20;99.90;;;;;;6702025;88;20201;-79
2021/07/17 00:23:45;;;;;;;22.10;7.55;;;18.30;99.90;;;;;;6705428;88;20621;-80
2021/07/17 00:33:45;;;;;;;21.70;7.97;;;18.10;99.90;;;;;;6701121;88;20186;-80
2021/07/17 00:43:47;;;;;;;16.37;7.82;;;18.10;99.90;;;;;;6700570;88;20182;-80
2021/07/17 00:53:47;;;;;;;18.87;7.90;;;18.00;99.90;;;;;;6700579;88;20182;-79
2021/07/17 01:03:48;;;;;;;22.13;7.75;;;18.00;99.90;;;;;;6704193;88;20273;-79
2021/07/17 01:13:49;;;;;;;21.95;8.43;;;18.00;99.90;;;;;;6701576;88;20244;-79
2021/07/17 01:23:49;;;;;;;18.27;7.90;;;18.00;99.90;;;;;;6705253;88;20228;-79
2021/07/17 01:33:50;;;;;;;24.02;8.48;;;17.90;99.90;;;;;;6704858;88;20634;-79
2021/07/17 01:43:51;;;;;;;22.10;8.20;;;18.00;99.90;;;;;;6705856;88;20274;-80
2021/07/17 01:53:56;;;;;;;19.87;9.10;;;18.10;99.90;;;;;;6700741;88;20205;-79
2021/07/17 02:03:56;;;;;;;23.92;9.38;;;17.90;99.90;;;;;;6702591;88;20178;-79
2021/07/17 02:13:57;;;;;;;21.60;8.63;;;17.90;99.90;;;;;;6714369;88;20189;-80
2021/07/17 02:23:58;;;;;;;26.45;9.55;;;17.90;99.90;;;;;;6703865;88;20222;-79
2021/07/17 02:33:58;;;;;;;24.02;9.85;;;18.00;99.90;;;;;;6702443;88;20376;-79
2021/07/17 02:43:59;;;;;;;21.42;9.48;;;17.90;99.90;;;;;;6721119;88;20198;-79
2021/07/17 02:53:59;;;;;;;25.17;10.40;;;18.00;99.90;;;;;;6704385;88;20319;-79
2021/07/17 03:04:00;;;;;;;29.65;11.18;;;17.90;99.90;;;;;;6723773;88;20215;-78
2021/07/17 03:14:02;;;;;;;24.27;10.60;;;18.00;99.90;;;;;;6699727;88;20253;-79
2021/07/17 03:24:02;;;;;;;24.48;10.75;;;18.00;99.90;;;;;;6705981;88;20236;-78
2021/07/17 03:34:03;;;;;;;29.50;12.25;;;17.90;99.90;;;;;;6703822;88;20272;-79
2021/07/17 03:44:06;;;;;;;29.27;12.50;;;17.90;99.90;;;;;;6706336;88;20300;-79
2021/07/17 03:54:07;;;;;;;30.42;12.63;;;17.90;99.90;;;;;;6699363;88;20171;-78
2021/07/17 04:04:11;;;;;;;33.10;13.80;;;17.90;99.90;;;;;;6700433;88;20205;-79
2021/07/17 04:14:11;;;;;;;30.07;12.33;;;17.90;99.90;;;;;;6704238;88;20275;-79
2021/07/17 04:24:12;;;;;;;30.25;13.00;;;18.00;99.90;;;;;;6700297;88;20739;-78
2021/07/17 04:34:12;;;;;;;26.77;12.90;;;18.00;99.90;;;;;;6699951;88;20303;-80
2021/07/17 04:44:13;;;;;;;28.55;12.50;;;17.90;99.90;;;;;;6700700;88;20536;-78
2021/07/17 04:54:14;;;;;;;32.58;13.15;;;17.90;99.90;;;;;;6696776;88;20260;-79
2021/07/17 05:04:14;;;;;;;33.10;13.32;;;17.90;99.90;;;;;;6694137;88;20646;-78
2021/07/17 05:14:15;;;;;;;32.08;14.13;;;17.80;99.90;;;;;;6704892;88;20209;-80
2021/07/17 05:24:16;;;;;;;33.38;13.85;;;17.90;99.90;;;;;;6708023;88;20667;-78
2021/07/17 05:34:16;;;;;;;33.58;13.85;;;17.90;99.90;;;;;;6706692;88;20259;-79
2021/07/17 05:44:17;;;;;;;29.60;13.30;;;17.90;99.90;;;;;;6706301;88;20208;-79
2021/07/17 05:54:18;;;;;;;25.15;11.75;;;18.00;99.90;;;;;;6704256;88;20670;-79
2021/07/17 06:04:19;;;;;;;26.60;11.63;;;18.10;99.90;;;;;;6708184;88;20695;-78
2021/07/17 06:14:19;;;;;;;28.77;12.20;;;18.20;99.90;;;;;;6709771;88;20244;-79
2021/07/17 06:24:20;;;;;;;30.00;12.30;;;18.20;99.90;;;;;;6701378;88;20254;-79
2021/07/17 06:34:21;;;;;;;32.40;13.10;;;18.30;99.90;;;;;;6694451;88;20293;-79
2021/07/17 06:44:22;;;;;;;36.05;17.42;;;18.60;99.90;;;;;;6700865;88;20229;-79
2021/07/17 06:54:22;;;;;;;36.63;17.92;;;18.90;99.90;;;;;;6700221;88;20213;-80
2021/07/17 07:04:23;;;;;;;30.30;14.32;;;19.10;99.90;;;;;;6700101;88;20202;-80
2021/07/17 07:14:25;;;;;;;26.60;12.63;;;19.60;99.90;;;;;;6704876;88;20221;-78
2021/07/17 07:24:25;;;;;;;29.33;13.95;;;20.20;99.90;;;;;;6697632;88;20190;-77
2021/07/17 07:34:26;;;;;;;26.75;15.18;;;20.30;99.90;;;;;;6695247;88;20210;-78
2021/07/17 07:44:27;;;;;;;29.77;15.57;;;20.30;99.90;;;;;;6703370;88;20178;-78
2021/07/17 07:54:28;;;;;;;32.20;17.48;;;20.40;99.90;;;;;;6715753;88;20186;-79
2021/07/17 08:04:28;;;;;;;34.00;19.50;;;20.30;99.90;;;;;;6720707;88;20159;-79
2021/07/17 08:14:29;;;;;;;40.67;20.10;;;20.20;99.90;;;;;;6711357;88;20167;-78
2021/07/17 08:24:29;;;;;;;36.88;19.40;;;20.20;99.90;;;;;;6696673;88;20202;-77
2021/07/17 08:34:30;;;;;;;30.80;17.25;;;20.30;99.90;;;;;;6700657;88;20212;-78
2021/07/17 08:44:31;;;;;;;28.90;16.33;;;20.60;99.90;;;;;;6703723;88;20199;-79
2021/07/17 08:54:32;;;;;;;27.87;15.68;;;20.70;99.90;;;;;;6711414;88;20197;-80
2021/07/17 09:04:33;;;;;;;31.00;17.98;;;20.50;99.90;;;;;;6710003;88;20670;-78
2021/07/17 09:14:36;;;;;;;32.47;17.40;;;20.30;99.90;;;;;;6708430;88;20256;-80
2021/07/17 09:24:37;;;;;;;40.85;18.85;;;20.20;99.90;;;;;;6708952;88;20212;-79
2021/07/17 09:34:39;;;;;;;33.92;18.83;;;20.20;99.90;;;;;;6703034;88;20210;-80
2021/07/17 09:44:40;;;;;;;33.72;17.73;;;20.70;99.90;;;;;;6713646;88;20259;-80
2021/07/17 09:55:07;;;;;;;34.00;18.70;;;20.70;99.90;;;;;;6711052;88;20178;-79
2021/07/17 10:05:10;;;;;;;30.75;17.80;;;20.70;99.90;;;;;;6707710;88;20186;-80
2021/07/17 10:15:15;;;;;;;31.65;18.55;;;20.80;99.90;;;;;;6707453;88;20219;-80
2021/07/17 10:25:16;;;;;;;24.55;14.68;;;21.10;99.90;;;;;;6714231;88;20199;-78
2021/07/17 10:35:16;;;;;;;23.23;14.47;;;21.40;99.90;;;;;;6707115;88;20270;-79
2021/07/17 10:45:37;;;;;;;31.07;18.23;;;21.70;99.90;;;;;;6697347;88;20617;-77
2021/07/17 10:55:38;;;;;;;32.35;18.27;;;21.40;99.90;;;;;;6692417;88;20187;-78
2021/07/17 11:05:38;;;;;;;31.63;15.77;;;21.50;99.90;;;;;;6688888;88;20589;-78
2021/07/17 11:15:40;;;;;;;26.87;16.25;;;21.90;99.90;;;;;;6698146;88;20960;-78
2021/07/17 11:25:55;;;;;;;26.50;16.40;;;22.20;99.90;;;;;;6706797;88;20186;-77
2021/07/17 11:35:56;;;;;;;25.73;14.95;;;22.10;99.90;;;;;;6708582;88;20194;-77
2021/07/17 11:45:56;;;;;;;31.23;16.83;;;22.40;99.90;;;;;;6706714;88;20780;-77
2021/07/17 11:55:58;;;;;;;27.33;15.88;;;22.30;99.90;;;;;;6702838;88;20318;-79
2021/07/17 12:06:00;;;;;;;27.40;14.43;;;22.50;99.90;;;;;;6699065;88;20612;-77
2021/07/17 12:16:01;;;;;;;30.05;14.63;;;23.00;99.90;;;;;;6695906;88;20279;-78
2021/07/17 12:26:04;;;;;;;21.87;13.60;;;23.10;99.90;;;;;;6699623;88;20187;-78
2021/07/17 12:36:07;;;;;;;22.60;12.07;;;24.20;99.90;;;;;;6703883;88;20513;-78
2021/07/17 12:46:18;;;;;;;21.65;11.65;;;26.60;99.90;;;;;;6701850;88;20174;-78
2021/07/17 12:56:41;;;;;;;20.02;11.12;;;26.70;99.90;;;;;;6713266;88;20190;-78
2021/07/17 13:06:42;;;;;;;;;;;27.10;99.90;;;;;;6705959;88;20312;-78
2021/07/17 13:16:45;;;;;;;18.17;10.57;;;27.20;99.90;;;;;;6706451;88;20082;-79
2021/07/17 13:26:53;;;;;;;;;;;28.30;99.90;;;;;;6705122;88;20747;-81
2021/07/17 13:37:01;;;;;;;15.80;9.43;;;29.60;99.90;;;;;;6701927;88;20062;-79
2021/07/17 13:47:11;;;;;;;15.68;7.47;;;30.20;99.90;;;;;;6711247;88;20183;-79
2021/07/17 13:57:13;;;;;;;12.98;6.53;;;29.50;99.90;;;;;;6721922;88;20194;-78
2021/07/17 14:07:14;;;;;;;10.43;5.47;;;30.10;99.90;;;;;;6720925;88;20228;-79
2021/07/17 14:17:15;;;;;;;7.95;3.78;;;30.30;99.90;;;;;;6712841;88;20674;-74
2021/07/17 14:27:16;;;;;;;10.63;3.92;;;30.10;99.10;;;;;;6708745;88;20261;-75
2021/07/17 14:37:16;;;;;;;8.30;3.75;;;30.80;97.90;;;;;;6708983;88;20194;-76
2021/07/17 14:47:17;;;;;;;8.60;3.20;;;31.40;96.30;;;;;;6708376;88;20182;-76
2021/07/17 14:57:18;;;;;;;6.75;3.08;;;30.90;96.60;;;;;;6699299;88;20191;-76
2021/07/17 15:07:18;;;;;;;9.00;2.85;;;31.10;96.10;;;;;;6700260;88;20627;-77
2021/07/17 15:17:19;;;;;;;8.27;2.50;;;30.90;95.30;;;;;;6704641;88;20325;-77
2021/07/17 15:27:19;;;;;;;7.62;2.40;;;30.90;95.20;;;;;;6699648;88;20257;-78
2021/07/17 15:37:30;;;;;;;5.33;2.40;;;31.00;94.90;;;;;;6710222;88;20287;-80
2021/07/17 15:47:31;;;;;;;4.22;2.30;;;30.50;94.40;;;;;;6715551;88;20186;-79
2021/07/17 15:57:31;;;;;;;5.20;2.20;;;30.20;95.70;;;;;;6714131;88;20447;-77
2021/07/17 16:07:32;;;;;;;6.90;2.22;;;30.20;94.50;;;;;;6711418;88;20633;-77
2021/07/17 16:17:33;;;;;;;3.77;2.07;;;30.00;95.20;;;;;;6709329;88;20335;-79
2021/07/17 16:27:38;;;;;;;7.57;2.33;;;30.70;94.40;;;;;;6706655;88;21208;-78
2021/07/17 16:37:39;;;;;;;6.00;2.12;;;31.10;94.40;;;;;;6706820;88;20191;-80
2021/07/17 16:47:39;;;;;;;5.30;2.30;;;29.90;94.80;;;;;;6713293;88;20638;-79
2021/07/17 16:57:41;;;;;;;5.90;1.93;;;29.50;96.00;;;;;;6707366;77;20280;-78
2021/07/17 17:07:42;;;;;;;3.90;1.90;;;28.90;95.70;;;;;;6687484;88;20614;-79
2021/07/17 17:17:42;;;;;;;6.20;1.90;;;28.60;96.00;;;;;;6684099;89;20913;-77
2021/07/17 17:27:43;;;;;;;5.40;1.60;;;29.40;95.60;;;;;;6687302;88;20218;-78
2021/07/17 17:37:45;;;;;;;3.97;2.00;;;29.10;95.80;;;;;;6686127;89;20231;-79
2021/07/17 17:47:46;;;;;;;5.40;2.10;;;28.20;97.10;;;;;;6680696;89;20219;-79
2021/07/17 17:57:47;;;;;;;7.00;1.70;;;28.70;96.60;;;;;;6682855;88;20342;-77
2021/07/17 18:07:49;;;;;;;5.27;2.10;;;28.40;96.70;;;;;;6689132;88;20179;-77
2021/07/17 18:17:50;;;;;;;6.33;2.30;;;28.30;96.30;;;;;;6688461;88;20195;-77
2021/07/17 18:27:51;;;;;;;4.55;2.20;;;27.60;97.00;;;;;;6685142;88;20288;-79
2021/07/17 18:37:54;;;;;;;4.75;1.90;;;27.30;97.10;;;;;;6682996;88;20532;-77
2021/07/17 18:47:55;;;;;;;3.83;1.92;;;27.10;97.60;;;;;;6680171;88;20692;-78
2021/07/17 18:57:56;;;;;;;3.25;1.67;;;26.30;98.60;;;;;;6684568;88;20193;-76
2021/07/17 19:07:57;;;;;;;5.10;1.80;;;25.50;98.50;;;;;;6682371;88;20220;-78
2021/07/17 19:17:57;;;;;;;4.55;1.87;;;25.00;99.10;;;;;;6682971;88;20194;-77
2021/07/17 19:27:59;;;;;;;4.60;1.92;;;24.60;99.90;;;;;;6682717;88;20617;-78
2021/07/17 19:37:59;;;;;;;5.45;1.80;;;24.20;99.90;;;;;;6677055;88;20216;-74
2021/07/17 19:48:00;;;;;;;3.95;1.80;;;24.00;99.90;;;;;;6675922;88;20187;-76
2021/07/17 19:58:00;;;;;;;3.92;1.83;;;23.60;99.90;;;;;;6673414;88;20199;-75
2021/07/17 20:08:02;;;;;;;4.93;1.80;;;23.30;99.90;;;;;;6673691;88;20233;-75
2021/07/17 20:18:04;;;;;;;5.53;2.00;;;23.10;99.90;;;;;;6677397;88;20331;-76
2021/07/17 20:28:04;;;;;;;3.53;1.70;;;22.80;99.90;;;;;;6676284;88;20244;-76
2021/07/17 20:38:07;;;;;;;4.62;1.90;;;22.50;99.90;;;;;;6680936;88;20302;-76
2021/07/17 20:48:08;;;;;;;4.00;1.95;;;22.40;99.90;;;;;;6670119;89;20201;-77
2021/07/17 20:58:09;;;;;;;4.03;1.80;;;22.30;99.90;;;;;;6667825;89;20195;-77
2021/07/17 21:08:09;;;;;;;4.60;1.90;;;21.90;99.90;;;;;;6660020;89;20312;-79
2021/07/17 21:18:10;;;;;;;4.53;1.70;;;21.70;99.90;;;;;;6674191;89;20304;-79
2021/07/17 21:28:10;;;;;;;3.55;2.00;;;21.50;99.90;;;;;;6669086;89;20660;-78
2021/07/17 21:38:11;;;;;;;3.28;1.70;;;21.40;99.90;;;;;;6674373;89;20224;-78
2021/07/17 21:48:11;;;;;;;6.37;1.73;;;21.00;99.90;;;;;;6675670;89;20204;-78
2021/07/17 21:58:12;;;;;;;2.65;1.50;;;20.80;99.90;;;;;;6685811;88;20333;-78
2021/07/17 22:08:22;;;;;;;2.78;1.80;;;20.50;99.90;;;;;;6692879;88;20671;-78
2021/07/17 22:18:22;;;;;;;4.97;1.85;;;20.30;99.90;;;;;;6693067;88;20194;-79
2021/07/17 22:28:23;;;;;;;5.43;1.87;;;20.00;99.90;;;;;;6693014;88;20698;-78
2021/07/17 22:38:24;;;;;;;4.25;1.80;;;19.90;99.90;;;;;;6673779;89;20233;-78
2021/07/17 22:48:25;;;;;;;5.70;1.62;;;19.70;99.90;;;;;;6676047;88;20216;-79
2021/07/17 23:09:28;;;;;;;4.00;2.17;;;19.40;99.90;;;;;;6712876;88;20202;-79
2021/07/17 23:19:29;;;;;;;8.98;1.95;;;19.20;99.90;;;;;;6694918;88;20570;-79
2021/07/17 23:29:29;;;;;;;7.53;2.12;;;19.00;99.90;;;;;;6695663;88;20208;-79
2021/07/17 23:39:30;;;;;;;5.10;1.95;;;18.80;99.90;;;;;;6695425;88;20205;-79
2021/07/17 23:49:30;;;;;;;7.97;2.50;;;18.60;99.90;;;;;;6696071;88;20241;-78
2021/07/17 23:59:31;;;;;;;6.18;2.55;;;18.40;99.90;;;;;;6699540;88;20195;-81
